Terminal Aerodrome Forecast
Issued by NWS Knoxville/Tri Cities, TN

Home | Current Version | Previous Version | Text Only | Print | Product List | Glossary On
Versions: 1 2 3 4 5 6 7 8 9 10 11 12 13 14 15 16 17 18 19 20 21 22 23 24 25 26 27 28 29
000
FTUS44 KMRX 180520
TAFTRI
TAF
KTRI 180520Z 1806/1906 VRB03KT P6SM SCT050 BKN200
     FM181000 05003KT P6SM BKN050
     FM181700 05005KT P6SM SCT060
     FM190000 06005KT P6SM VCSH BKN060=

USA.gov is the U.S. government's official web portal to all federal, state and local government web resources and services.